Time;durP1;ratioP1;P1;durP2;ratioP2;P2;SDS_P1;SDS_P2;PMS_P1;PMS_P2;Temp;Humidity;BMP_temperature;BMP_pressure;BME280_temperature;BME280_humidity;BME280_pressure;Samples;Min_cycle;Max_cycle;Signal;HPM_P1;HPM_P2
2022/11/08 00:02:11;;;;;;;17.85;12.20;;;;;;;0.65;100.00;101196.86;1734730;82;20989;-60
2022/11/08 00:04:38;;;;;;;20.60;14.83;;;;;;;0.70;100.00;101196.92;1733903;81;20949;-60
2022/11/08 00:15:26;;;;;;;18.17;13.00;;;;;;;0.66;100.00;101191.62;1621428;87;21008;-59
2022/11/08 00:17:54;;;;;;;16.48;12.03;;;;;;;0.79;100.00;101192.13;1620629;87;20932;-60
2022/11/08 00:20:23;;;;;;;17.10;12.73;;;;;;;0.84;100.00;101192.67;1621361;88;21182;-59
2022/11/08 00:22:51;;;;;;;18.73;13.62;;;;;;;0.89;100.00;101190.63;1621300;88;21374;-59
2022/11/08 00:25:18;;;;;;;18.40;13.55;;;;;;;0.88;100.00;101190.28;1621330;88;20932;-59
2022/11/08 00:27:46;;;;;;;17.27;12.98;;;;;;;1.02;100.00;101189.37;1621166;88;21038;-71
2022/11/08 00:30:15;;;;;;;18.85;13.25;;;;;;;1.04;100.00;101185.80;1621211;87;21472;-60
2022/11/08 00:32:43;;;;;;;17.12;12.85;;;;;;;1.01;100.00;101187.73;1621346;87;20976;-59
2022/11/08 00:35:11;;;;;;;19.48;14.53;;;;;;;1.06;100.00;101182.69;1621229;88;21534;-59
2022/11/08 00:37:38;;;;;;;21.85;14.93;;;;;;;1.02;100.00;101185.52;1620916;88;20980;-59
2022/11/08 00:40:07;;;;;;;19.67;14.23;;;;;;;1.04;100.00;101184.98;1620606;87;21034;-60
2022/11/08 00:42:35;;;;;;;20.27;14.05;;;;;;;0.99;100.00;101178.86;1621134;87;21086;-59
2022/11/08 00:45:03;;;;;;;19.45;14.65;;;;;;;0.96;100.00;101173.45;1621236;87;20924;-60
2022/11/08 00:47:31;;;;;;;19.98;15.35;;;;;;;0.95;100.00;101177.42;1621061;87;21835;-60
2022/11/08 00:49:58;;;;;;;20.57;14.80;;;;;;;0.96;100.00;101176.48;1621226;87;20953;-69
2022/11/08 00:52:25;;;;;;;18.27;13.48;;;;;;;0.97;100.00;101181.52;1621057;88;21039;-59
2022/11/08 00:54:53;;;;;;;17.32;12.80;;;;;;;0.95;100.00;101172.28;1621328;87;21032;-59
2022/11/08 00:57:20;;;;;;;17.52;12.15;;;;;;;0.89;100.00;101165.78;1621358;87;20944;-58
2022/11/08 00:59:48;;;;;;;16.85;12.93;;;;;;;1.03;100.00;101162.34;1621520;88;21513;-59
2022/11/08 01:02:16;;;;;;;20.37;14.03;;;;;;;1.00;100.00;101159.97;1620648;87;21660;-59
2022/11/08 01:04:43;;;;;;;16.65;12.45;;;;;;;0.97;100.00;101158.87;1621386;88;21573;-58
2022/11/08 01:07:10;;;;;;;13.60;10.68;;;;;;;0.90;100.00;101158.90;1621037;88;21035;-58
2022/11/08 01:09:37;;;;;;;16.32;12.05;;;;;;;1.04;100.00;101158.02;1621125;88;21042;-59
2022/11/08 01:12:05;;;;;;;18.30;13.38;;;;;;;1.03;100.00;101157.67;1628217;87;21181;-65
2022/11/08 01:14:33;;;;;;;18.73;14.03;;;;;;;1.07;100.00;101159.94;1632311;87;20942;-59
2022/11/08 01:17:02;;;;;;;20.27;13.80;;;;;;;1.00;100.00;101163.00;1632871;86;21053;-58
2022/11/08 01:19:30;;;;;;;18.17;13.05;;;;;;;1.10;100.00;101157.17;1632710;87;21027;-58
2022/11/08 01:21:58;;;;;;;16.75;13.32;;;;;;;1.12;100.00;101158.34;1632725;87;21526;-59
2022/11/08 01:24:25;;;;;;;19.25;12.70;;;;;;;0.91;100.00;101156.25;1631987;86;21178;-69
2022/11/08 01:26:53;;;;;;;17.77;13.85;;;;;;;0.91;100.00;101152.84;1632599;87;21306;-59
2022/11/08 01:29:21;;;;;;;18.92;14.23;;;;;;;1.05;100.00;101155.81;1632242;87;21074;-59
2022/11/08 01:31:48;;;;;;;22.07;13.43;;;;;;;1.09;100.00;101158.07;1632499;87;20949;-59
2022/11/08 01:34:15;;;;;;;15.98;12.47;;;;;;;1.10;100.00;101161.02;1632732;87;21601;-64
2022/11/08 01:36:43;;;;;;;17.00;12.07;;;;;;;1.10;100.00;101152.03;1631998;87;21859;-58
2022/11/08 01:39:10;;;;;;;17.25;13.85;;;;;;;1.10;100.00;101149.47;1632652;87;21095;-58
2022/11/08 01:41:37;;;;;;;18.12;14.15;;;;;;;0.97;100.00;101150.70;1632589;87;21020;-58
2022/11/08 01:44:07;;;;;;;21.17;15.80;;;;;;;0.93;100.00;101146.69;1632648;87;21023;-59
2022/11/08 01:46:45;;;;;;;17.20;13.40;;;;;;;1.00;100.00;101149.70;1631942;86;21056;-59
2022/11/08 01:49:38;;;;;;;18.20;13.78;;;;;;;1.02;100.00;101150.41;1632578;87;21126;-58
2022/11/08 01:52:28;;;;;;;23.05;17.23;;;;;;;1.15;100.00;101147.88;1631816;87;21578;-60
2022/11/08 01:55:18;;;;;;;17.50;14.00;;;;;;;1.00;100.00;101144.56;1632546;87;21681;-59
2022/11/08 01:57:54;;;;;;;17.27;12.75;;;;;;;1.02;100.00;101145.73;1632824;87;20997;-59
2022/11/08 02:00:22;;;;;;;17.05;12.53;;;;;;;1.04;100.00;101143.91;1632634;87;20945;-59
2022/11/08 02:02:55;;;;;;;17.25;13.55;;;;;;;1.07;100.00;101141.96;1632690;86;21269;-59
2022/11/08 02:08:33;;;;;;;15.30;13.00;;;;;;;1.12;100.00;101144.22;1621985;87;20990;-59
2022/11/08 02:11:01;;;;;;;21.80;15.18;;;;;;;1.16;100.00;101141.34;1621920;87;21483;-59
2022/11/08 02:13:32;;;;;;;18.27;14.30;;;;;;;1.29;100.00;101137.53;1621465;87;21294;-58
2022/11/08 02:16:00;;;;;;;18.98;14.10;;;;;;;1.37;100.00;101135.73;1621973;88;21291;-58
2022/11/08 02:18:30;;;;;;;20.37;15.20;;;;;;;1.29;100.00;101136.24;1621971;87;21204;-59
2022/11/08 02:21:41;;;;;;;19.27;14.07;;;;;;;1.31;100.00;101139.52;1621656;88;21116;-60
2022/11/08 02:24:12;;;;;;;21.90;15.40;;;;;;;1.32;100.00;101135.20;1621705;88;21001;-61
2022/11/08 02:26:40;;;;;;;17.70;13.05;;;;;;;1.32;100.00;101133.91;1622066;88;21411;-60
2022/11/08 02:29:32;;;;;;;16.45;13.38;;;;;;;1.28;100.00;101136.33;1621867;88;21276;-61
2022/11/08 02:32:01;;;;;;;19.02;14.68;;;;;;;1.18;100.00;101131.81;1621482;88;21554;-70
2022/11/08 02:34:33;;;;;;;15.28;11.43;;;;;;;1.18;100.00;101139.52;1622011;88;22074;-58
2022/11/08 02:37:01;;;;;;;12.90;10.38;;;;;;;1.20;100.00;101136.37;1621905;88;21034;-58
2022/11/08 02:39:29;;;;;;;14.45;11.12;;;;;;;1.23;100.00;101143.52;1622061;88;21049;-58
2022/11/08 02:41:57;;;;;;;14.28;11.10;;;;;;;1.23;100.00;101131.97;1621814;88;21290;-64
2022/11/08 02:44:24;;;;;;;12.70;10.60;;;;;;;1.31;100.00;101137.41;1621596;88;21112;-59
2022/11/08 02:46:51;;;;;;;10.70;8.18;;;;;;;1.32;100.00;101139.05;1622045;88;21033;-58
2022/11/08 02:49:19;;;;;;;12.45;9.00;;;;;;;1.31;100.00;101138.70;1621772;88;21030;-58
2022/11/08 02:51:47;;;;;;;11.95;8.98;;;;;;;1.44;100.00;101135.22;1621957;88;20974;-58
2022/11/08 02:54:14;;;;;;;11.57;9.48;;;;;;;1.32;100.00;101141.63;1621373;88;21188;-59
2022/11/08 02:56:41;;;;;;;10.28;8.58;;;;;;;1.28;100.00;101137.14;1621974;88;21108;-60
2022/11/08 02:59:09;;;;;;;10.08;7.87;;;;;;;1.30;100.00;101143.02;1621735;87;20973;-59
2022/11/08 03:01:36;;;;;;;11.10;8.00;;;;;;;1.29;100.00;101135.39;1621829;88;21113;-58
2022/11/08 03:04:04;;;;;;;9.25;7.65;;;;;;;1.47;100.00;101138.03;1621957;88;21512;-70
2022/11/08 03:06:31;;;;;;;9.20;7.72;;;;;;;1.46;100.00;101129.97;1619519;87;21217;-58
2022/11/08 03:08:59;;;;;;;10.10;7.45;;;;;;;1.50;100.00;101126.27;1614687;88;21020;-58
2022/11/08 03:11:26;;;;;;;9.03;6.87;;;;;;;1.56;100.00;101126.34;1615119;88;21141;-59
2022/11/08 03:13:53;;;;;;;8.60;6.75;;;;;;;1.53;100.00;101129.92;1614655;88;21061;-58
2022/11/08 03:16:22;;;;;;;9.58;7.15;;;;;;;1.52;100.00;101133.42;1614860;87;21549;-69
2022/11/08 06:06:42;;;;;;;47.63;37.77;;;;;;;2.64;100.00;101135.46;1821062;78;22620;-63
2022/11/08 06:09:09;;;;;;;27.13;21.68;;;;;;;2.84;100.00;101135.34;1782664;80;20967;-59
2022/11/08 06:11:38;;;;;;;14.83;12.23;;;;;;;3.00;100.00;101136.32;1783433;80;22198;-59
2022/11/08 06:14:06;;;;;;;14.28;11.33;;;;;;;3.05;100.00;101143.70;1783141;79;20990;-61
2022/11/08 06:16:34;;;;;;;13.70;10.68;;;;;;;3.09;100.00;101140.78;1783142;80;20907;-59
2022/11/08 06:19:04;;;;;;;13.80;10.18;;;;;;;3.22;100.00;101138.59;1783112;80;21422;-62
2022/11/08 06:21:31;;;;;;;16.85;11.93;;;;;;;3.35;100.00;101136.28;1782574;79;20936;-59
2022/11/08 06:23:58;;;;;;;16.00;12.47;;;;;;;3.45;100.00;101143.31;1783027;80;21252;-58
2022/11/08 06:26:25;;;;;;;14.85;11.15;;;;;;;3.37;100.00;101135.72;1783171;80;21022;-58
2022/11/08 06:28:52;;;;;;;14.75;11.10;;;;;;;3.38;100.00;101136.06;1783010;79;20928;-59
2022/11/08 06:31:19;;;;;;;15.55;11.40;;;;;;;3.41;100.00;101129.39;1782698;80;20951;-70
2022/11/08 06:33:46;;;;;;;18.73;13.88;;;;;;;3.45;100.00;101128.70;1783619;79;21042;-60
2022/11/08 06:36:14;;;;;;;17.10;13.08;;;;;;;3.45;100.00;101122.25;1783219;80;21067;-60
2022/11/08 06:38:41;;;;;;;14.18;11.25;;;;;;;3.47;100.00;101126.80;1783074;80;21027;-60
2022/11/08 06:41:09;;;;;;;15.03;11.57;;;;;;;3.50;100.00;101129.16;1782910;80;20924;-61
2022/11/08 06:43:36;;;;;;;18.12;13.00;;;;;;;3.58;100.00;101124.23;1782867;80;21639;-60
2022/11/08 06:46:03;;;;;;;17.02;13.38;;;;;;;3.67;100.00;101126.58;1783235;80;20904;-58
2022/11/08 06:48:30;;;;;;;17.20;12.63;;;;;;;3.84;100.00;101127.89;1782915;80;21251;-58
2022/11/08 06:50:57;;;;;;;17.35;13.95;;;;;;;3.98;100.00;101117.33;1782972;79;20888;-59
2022/11/08 06:53:25;;;;;;;15.70;12.60;;;;;;;4.13;100.00;101116.61;1782522;79;20936;-64
2022/11/08 06:55:52;;;;;;;16.62;11.55;;;;;;;4.26;100.00;101116.45;1783267;80;21236;-58
2022/11/08 06:58:20;;;;;;;16.20;12.82;;;;;;;4.36;100.00;101112.22;1783192;79;21039;-61
2022/11/08 07:00:49;;;;;;;15.25;12.43;;;;;;;4.50;100.00;101108.04;1783141;80;21431;-59
2022/11/08 07:03:16;;;;;;;21.73;16.10;;;;;;;4.60;100.00;101098.63;1782792;80;20924;-63
2022/11/08 07:05:44;;;;;;;20.37;14.70;;;;;;;4.70;100.00;101099.16;1785780;80;22056;-59
2022/11/08 07:08:11;;;;;;;32.75;19.25;;;;;;;4.75;100.00;101095.75;1789029;80;20889;-59
2022/11/08 07:10:39;;;;;;;24.37;16.93;;;;;;;4.76;100.00;101096.91;1789009;79;20952;-59
2022/11/08 07:13:11;;;;;;;17.30;13.95;;;;;;;4.81;100.00;101093.95;1788904;79;21415;-68
2022/11/08 07:15:40;;;;;;;15.50;12.65;;;;;;;4.84;100.00;101097.58;1789121;79;21331;-59
2022/11/08 07:18:12;;;;;;;14.45;11.70;;;;;;;5.02;100.00;101105.59;1788475;79;21410;-60
2022/11/08 07:20:40;;;;;;;13.65;10.18;;;;;;;5.19;100.00;101096.44;1788546;80;20923;-59
2022/11/08 07:23:11;;;;;;;14.98;10.85;;;;;;;5.42;100.00;101096.66;1787984;80;20915;-64
2022/11/08 07:25:39;;;;;;;14.30;11.50;;;;;;;5.55;100.00;101097.72;1788506;79;21018;-59
2022/11/08 07:28:07;;;;;;;13.57;11.20;;;;;;;5.69;100.00;101104.32;1788691;80;21277;-59
2022/11/08 07:30:35;;;;;;;25.90;18.17;;;;;;;5.73;100.00;101097.45;1788795;80;21667;-59
2022/11/08 07:33:02;;;;;;;16.37;12.30;;;;;;;5.74;100.00;101097.79;1788871;79;21141;-58
2022/11/08 07:35:30;;;;;;;15.77;11.17;;;;;;;5.67;100.00;101096.67;1788168;80;21265;-59
2022/11/08 07:37:57;;;;;;;13.33;10.17;;;;;;;5.62;100.00;101094.96;1788416;80;21289;-59
2022/11/08 07:40:24;;;;;;;13.20;9.73;;;;;;;5.66;100.00;101092.94;1788778;80;21654;-58
2022/11/08 07:42:51;;;;;;;14.33;11.50;;;;;;;5.72;100.00;101095.83;1788610;80;21118;-58
2022/11/08 07:45:19;;;;;;;12.80;9.77;;;;;;;5.83;100.00;101095.73;1787921;80;21181;-61
2022/11/08 07:47:46;;;;;;;11.57;9.83;;;;;;;5.91;100.00;101095.07;1788461;80;21072;-60
2022/11/08 07:50:13;;;;;;;12.43;9.67;;;;;;;5.98;100.00;101100.06;1788966;79;21883;-60
2022/11/08 07:52:41;;;;;;;13.60;11.00;;;;;;;6.04;100.00;101102.62;1788808;80;21746;-58
2022/11/08 07:55:08;;;;;;;14.07;10.97;;;;;;;6.02;100.00;101100.17;1788369;80;21156;-59
2022/11/08 07:57:36;;;;;;;14.30;12.07;;;;;;;5.97;100.00;101097.14;1788474;79;21403;-58
2022/11/08 08:00:04;;;;;;;15.57;12.47;;;;;;;6.02;100.00;101096.73;1788946;79;21772;-59
2022/11/08 08:02:33;;;;;;;10.80;9.43;;;;;;;6.08;100.00;101100.91;1787974;79;21250;-58
2022/11/08 08:05:00;;;;;;;11.37;9.63;;;;;;;6.13;100.00;101098.41;1788075;79;21197;-64
2022/11/08 08:07:28;;;;;;;12.70;9.73;;;;;;;6.14;100.00;101093.56;1771662;81;21156;-58
2022/11/08 08:09:57;;;;;;;14.70;10.97;;;;;;;6.24;100.00;101091.34;1772264;81;21796;-58
2022/11/08 08:12:24;;;;;;;12.47;9.23;;;;;;;6.36;100.00;101086.03;1772035;81;21035;-58
2022/11/08 08:14:52;;;;;;;13.03;9.57;;;;;;;6.57;100.00;101085.44;1771843;79;21165;-58
2022/11/08 08:17:19;;;;;;;13.10;10.80;;;;;;;6.89;100.00;101079.95;1771256;81;21244;-60
2022/11/08 08:19:48;;;;;;;12.47;10.60;;;;;;;7.41;100.00;101070.00;1772166;81;21117;-59
2022/11/08 08:22:15;;;;;;;12.47;10.33;;;;;;;7.96;100.00;101073.09;1772241;81;21691;-58
2022/11/08 08:24:45;;;;;;;12.37;11.07;;;;;;;8.40;100.00;101067.55;1771842;79;21277;-58
2022/11/08 08:27:12;;;;;;;12.90;10.97;;;;;;;8.84;100.00;101063.69;1772117;81;21313;-60
2022/11/08 08:29:40;;;;;;;16.87;12.67;;;;;;;9.21;100.00;101061.33;1771212;81;22165;-59
2022/11/08 08:32:08;;;;;;;12.23;10.90;;;;;;;9.56;100.00;101060.84;1772190;79;21701;-59
2022/11/08 08:34:36;;;;;;;11.30;9.73;;;;;;;9.91;100.00;101053.30;1771990;81;21602;-58
2022/11/08 08:37:04;;;;;;;11.60;9.70;;;;;;;10.19;100.00;101051.23;1759015;81;20994;-59
2022/11/08 08:39:32;;;;;;;10.83;8.83;;;;;;;10.17;100.00;101046.68;1771573;81;21252;-58
2022/11/08 08:41:59;;;;;;;11.27;8.60;;;;;;;10.12;100.00;101047.17;1771820;81;20952;-58
2022/11/08 08:44:27;;;;;;;11.07;9.73;;;;;;;10.05;100.00;101040.16;1771890;81;20932;-59
2022/11/08 08:46:55;;;;;;;11.20;9.40;;;;;;;10.08;100.00;101039.34;1772082;81;20932;-59
2022/11/08 08:49:24;;;;;;;11.20;9.50;;;;;;;10.18;100.00;101037.88;1771502;81;21446;-63
2022/11/08 08:51:51;;;;;;;10.47;8.87;;;;;;;10.34;100.00;101029.28;1771952;79;21239;-58
2022/11/08 08:54:18;;;;;;;8.80;7.90;;;;;;;10.35;100.00;101027.84;1771889;81;20925;-62
2022/11/08 08:56:45;;;;;;;11.13;8.40;;;;;;;10.36;100.00;101022.14;1771960;81;20972;-58
2022/11/08 08:59:13;;;;;;;9.80;7.37;;;;;;;10.66;100.00;101020.17;1772645;79;20893;-58
2022/11/08 09:01:40;;;;;;;9.40;7.83;;;;;;;11.00;100.00;101015.71;1771427;79;20987;-60
2022/11/08 09:04:08;;;;;;;9.00;7.60;;;;;;;11.04;100.00;101005.27;1771562;81;22690;-59
2022/11/08 09:06:36;;;;;;;9.73;8.50;;;;;;;11.06;100.00;101010.65;1781014;79;20964;-58
2022/11/08 09:09:03;;;;;;;11.60;8.03;;;;;;;10.94;100.00;101008.05;1788230;80;20923;-59
2022/11/08 09:11:31;;;;;;;10.20;7.30;;;;;;;10.85;100.00;101004.66;1788499;79;20928;-59
2022/11/08 09:13:58;;;;;;;9.27;7.47;;;;;;;10.73;100.00;101002.57;1788096;79;21498;-60
2022/11/08 09:16:26;;;;;;;10.10;7.27;;;;;;;10.74;100.00;101001.58;1788403;80;21142;-60
2022/11/08 09:18:53;;;;;;;9.97;7.70;;;;;;;10.97;100.00;100995.98;1788513;79;20928;-59
2022/11/08 09:21:20;;;;;;;9.73;7.77;;;;;;;11.27;100.00;100998.33;1788539;80;20928;-58
2022/11/08 09:23:48;;;;;;;9.37;8.20;;;;;;;11.45;100.00;100993.69;1788409;80;20891;-69
2022/11/08 09:26:15;;;;;;;9.23;7.07;;;;;;;11.55;100.00;100992.66;1788055;80;20967;-58
2022/11/08 09:28:42;;;;;;;9.23;7.87;;;;;;;11.83;100.00;100985.16;1788312;79;21099;-58
2022/11/08 09:31:10;;;;;;;10.43;7.73;;;;;;;11.79;100.00;100984.70;1788403;79;21002;-58
2022/11/08 09:33:38;;;;;;;9.43;8.10;;;;;;;11.68;100.00;100989.81;1787934;80;20885;-58
2022/11/08 09:36:07;;;;;;;10.03;8.17;;;;;;;11.74;100.00;100981.77;1787881;80;20845;-61
2022/11/08 09:38:34;;;;;;;13.93;11.40;;;;;;;12.21;100.00;100982.14;1788356;80;21003;-58
2022/11/08 09:41:14;;;;;;;9.37;8.00;;;;;;;12.60;100.00;100982.45;1788565;79;20864;-59
2022/11/08 09:44:11;;;;;;;9.53;8.23;;;;;;;12.57;99.81;100976.26;1788082;79;21038;-59
2022/11/08 09:46:50;;;;;;;10.60;7.63;;;;;;;12.51;99.33;100976.48;1788100;80;20976;-59
2022/11/08 09:49:27;;;;;;;10.43;9.10;;;;;;;12.60;100.00;100978.52;1788603;80;20956;-58
2022/11/08 09:51:54;;;;;;;11.37;9.73;;;;;;;12.55;90.28;100976.95;1788277;79;20991;-59
2022/11/08 09:54:25;;;;;;;12.00;9.97;;;;;;;12.08;90.94;100972.75;1788385;80;21205;-60
2022/11/08 09:56:53;;;;;;;13.50;10.63;;;;;;;11.67;94.70;100974.33;1788668;79;21426;-60
2022/11/08 09:59:45;;;;;;;10.77;9.43;;;;;;;11.48;100.00;100972.13;1768837;80;20960;-61
2022/11/08 10:02:16;;;;;;;12.13;8.60;;;;;;;11.56;100.00;100965.58;1788554;79;21030;-58
2022/11/08 10:05:01;;;;;;;11.30;9.90;;;;;;;12.03;100.00;100968.55;1788975;79;21179;-58
2022/11/08 10:08:04;;;;;;;14.87;9.07;;;;;;;12.21;99.40;100961.23;1786213;79;21276;-60
2022/11/08 10:10:54;;;;;;;11.87;9.40;;;;;;;12.09;97.58;100959.53;1784905;79;21501;-59
2022/11/08 10:13:49;;;;;;;14.60;10.40;;;;;;;12.19;96.25;100957.97;1767028;79;20955;-59
2022/11/08 10:16:45;;;;;;;12.03;9.70;;;;;;;12.16;97.29;100962.27;1785827;80;21110;-59
2022/11/08 10:19:36;;;;;;;12.50;10.37;;;;;;;12.27;98.56;100956.58;1786023;79;21069;-60
2022/11/08 10:22:13;;;;;;;11.40;9.97;;;;;;;12.54;100.00;100943.92;1786108;79;21269;-59
2022/11/08 10:25:01;;;;;;;12.17;8.83;;;;;;;13.00;96.25;100941.16;1785951;80;20959;-58
2022/11/08 10:27:41;;;;;;;15.77;9.83;;;;;;;13.12;88.26;100941.00;1785689;79;21252;-59
2022/11/08 10:30:19;;;;;;;13.57;10.07;;;;;;;13.03;86.08;100935.06;1785678;79;20932;-59
2022/11/08 10:32:56;;;;;;;13.07;10.70;;;;;;;12.86;83.35;100943.58;1785701;79;21047;-60
2022/11/08 10:35:46;;;;;;;10.23;8.20;;;;;;;12.65;85.96;100935.63;1785963;79;21118;-59
2022/11/08 14:18:29;;;;;;;48.87;26.57;;;;;;;5.20;100.00;100930.91;1839952;78;23297;-59
2022/11/08 14:20:57;;;;;;;64.40;33.87;;;;;;;5.17;100.00;100941.50;1815676;79;21437;-57
2022/11/08 14:23:28;;;;;;;60.03;32.60;;;;;;;5.13;100.00;100937.55;1815622;78;21885;-57
2022/11/08 14:26:02;;;;;;;37.08;20.37;;;;;;;5.10;100.00;100941.20;1814917;79;21193;-58
2022/11/08 14:28:35;;;;;;;79.85;55.78;;;;;;;5.05;100.00;100949.83;1815771;78;20947;-59
2022/11/08 14:31:07;;;;;;;83.30;58.47;;;;;;;5.05;100.00;100945.95;1815689;79;20963;-58
2022/11/08 14:33:41;;;;;;;82.65;73.85;;;;;;;4.97;100.00;100948.38;1809210;79;21203;-58
2022/11/08 14:36:12;;;;;;;173.55;151.57;;;;;;;4.74;100.00;100942.55;1815593;78;21267;-58
2022/11/08 14:38:51;;;;;;;76.75;62.35;;;;;;;4.63;100.00;100946.03;1815761;79;26268;-58
2022/11/08 14:41:23;;;;;;;60.63;49.77;;;;;;;4.56;100.00;100953.12;1812433;79;20931;-61
2022/11/08 14:43:51;;;;;;;46.90;36.08;;;;;;;4.47;100.00;100953.41;1815614;79;21359;-58
2022/11/08 14:46:26;;;;;;;55.65;49.67;;;;;;;4.40;100.00;100958.73;1815584;78;20917;-58
2022/11/08 14:48:54;;;;;;;34.00;25.15;;;;;;;4.28;100.00;100955.84;1815607;79;21237;-59
2022/11/08 14:51:22;;;;;;;30.12;20.75;;;;;;;4.12;100.00;100955.79;1814838;79;20876;-58
2022/11/08 14:53:53;;;;;;;35.03;29.07;;;;;;;4.10;100.00;100953.82;1815709;78;21240;-61
2022/11/08 14:56:25;;;;;;;28.05;16.50;;;;;;;3.98;100.00;100954.81;1815410;79;20884;-58
2022/11/08 14:58:54;;;;;;;29.05;20.05;;;;;;;3.96;100.00;100956.69;1814500;79;20967;-68
2022/11/08 15:01:25;;;;;;;47.23;41.02;;;;;;;3.83;100.00;100962.48;1815130;79;20919;-59
2022/11/08 15:03:58;;;;;;;38.45;31.23;;;;;;;3.79;100.00;100970.09;1815524;79;20907;-58
2022/11/08 15:06:41;;;;;;;33.67;21.93;;;;;;;3.68;100.00;100966.28;1815419;78;21050;-59
2022/11/08 15:09:19;;;;;;;50.00;39.65;;;;;;;3.63;100.00;100960.98;1815429;79;20927;-58
2022/11/08 15:11:49;;;;;;;41.70;28.42;;;;;;;3.56;100.00;100957.28;1815411;79;20963;-59
2022/11/08 15:14:19;;;;;;;30.75;18.55;;;;;;;3.57;100.00;100961.96;1815363;78;21076;-58
2022/11/08 15:16:50;;;;;;;30.02;20.12;;;;;;;3.53;100.00;100960.56;1811105;79;21470;-60
2022/11/08 15:19:41;;;;;;;35.25;20.35;;;;;;;3.49;100.00;100958.70;1804077;79;21374;-59
2022/11/08 15:22:32;;;;;;;35.85;19.30;;;;;;;3.41;100.00;100961.06;1804508;79;20892;-60
2022/11/08 15:25:23;;;;;;;32.08;20.08;;;;;;;3.38;100.00;100956.13;1804223;78;21466;-60
2022/11/08 15:27:57;;;;;;;;;;;;;;;3.42;100.00;100961.40;1806602;78;21223;-68
2022/11/08 15:30:37;;;;;;;27.50;16.20;;;;;;;3.44;100.00;100963.38;1803640;79;20172;-60
2022/11/08 15:33:04;;;;;;;28.70;17.92;;;;;;;3.49;100.00;100959.98;1803677;79;20987;-59
2022/11/08 15:35:37;;;;;;;25.88;17.05;;;;;;;3.51;100.00;100960.67;1803538;79;20951;-68
2022/11/08 15:38:07;;;;;;;32.45;19.92;;;;;;;3.55;100.00;100962.06;1803573;79;21308;-58
2022/11/08 15:40:35;;;;;;;53.70;34.92;;;;;;;3.54;100.00;100957.05;1802958;79;21442;-57
2022/11/08 15:43:02;;;;;;;85.15;57.85;;;;;;;3.54;100.00;100957.86;1803403;79;21043;-58
2022/11/08 15:45:34;;;;;;;105.27;70.90;;;;;;;3.47;100.00;100964.42;1803848;79;20916;-68
2022/11/08 15:48:11;;;;;;;89.28;58.60;;;;;;;3.34;100.00;100969.73;1803952;79;21042;-58
2022/11/08 15:50:38;;;;;;;77.65;47.90;;;;;;;3.28;100.00;100975.81;1803892;79;20983;-57
2022/11/08 15:53:05;;;;;;;54.70;40.17;;;;;;;3.14;100.00;100975.13;1803755;79;21257;-58
2022/11/08 15:55:45;;;;;;;47.88;29.37;;;;;;;3.12;100.00;100967.97;1803207;79;20932;-67
2022/11/08 15:58:21;;;;;;;31.05;22.32;;;;;;;3.08;100.00;100974.30;1803746;79;20920;-58
2022/11/08 16:00:48;;;;;;;43.33;25.15;;;;;;;3.12;100.00;100972.31;1795552;79;20971;-58
2022/11/08 16:03:15;;;;;;;31.55;21.23;;;;;;;3.13;100.00;100972.17;1803021;79;21374;-60
2022/11/08 16:05:42;;;;;;;31.80;22.25;;;;;;;3.10;100.00;100972.41;1803608;79;22354;-58
2022/11/08 16:08:09;;;;;;;32.55;21.05;;;;;;;3.07;100.00;100975.68;1803611;79;20995;-57
2022/11/08 16:10:48;;;;;;;30.30;19.80;;;;;;;3.01;100.00;100974.41;1803521;79;20987;-57
2022/11/08 16:13:29;;;;;;;37.42;21.65;;;;;;;2.98;100.00;100970.77;1803331;79;20936;-67
2022/11/08 16:15:56;;;;;;;;;;;;;;;3.02;100.00;100968.31;1782099;79;21081;-58
2022/11/08 16:18:25;;;;;;;43.73;31.20;;;;;;;3.07;100.00;100980.39;1803850;79;21267;-58
2022/11/08 16:20:53;;;;;;;46.15;31.57;;;;;;;2.97;100.00;100991.50;1803352;79;20967;-58
2022/11/08 16:23:20;;;;;;;95.57;59.40;;;;;;;2.84;100.00;100997.58;1803598;79;20944;-68
2022/11/08 16:25:51;;;;;;;108.32;64.35;;;;;;;2.68;100.00;100999.63;1803529;79;21533;-58
2022/11/08 16:28:36;;;;;;;116.45;66.47;;;;;;;2.51;100.00;101005.22;1803770;79;20929;-59
2022/11/08 16:31:13;;;;;;;151.40;84.95;;;;;;;2.31;100.00;101009.22;1804022;79;21145;-66
2022/11/08 16:33:41;;;;;;;92.12;54.77;;;;;;;2.17;100.00;101005.09;1802853;79;21030;-58
2022/11/08 16:36:18;;;;;;;88.37;56.30;;;;;;;2.11;100.00;101002.48;1803617;79;20979;-58
2022/11/08 16:38:56;;;;;;;97.80;58.45;;;;;;;2.06;100.00;101002.00;1803574;79;20936;-59
2022/11/08 16:41:24;;;;;;;68.30;42.90;;;;;;;2.00;100.00;101008.03;1803702;79;21042;-58
2022/11/08 16:43:52;;;;;;;58.58;40.33;;;;;;;1.92;100.00;101009.86;1803677;79;21498;-58
2022/11/08 16:46:20;;;;;;;58.10;37.38;;;;;;;1.88;100.00;101011.02;1803432;79;21007;-59
2022/11/08 16:48:52;;;;;;;60.95;39.15;;;;;;;1.91;100.00;101015.48;1804006;79;20881;-69
2022/11/08 16:51:19;;;;;;;;;;;;;;;1.98;100.00;101012.02;1806189;79;21018;-59
2022/11/08 16:53:47;;;;;;;75.08;46.55;;;;;;;1.99;100.00;101021.36;1803900;79;20090;-58
2022/11/08 16:56:14;;;;;;;88.90;53.80;;;;;;;2.02;100.00;101014.72;1803568;79;21258;-58
2022/11/08 16:58:42;;;;;;;96.67;55.52;;;;;;;2.05;100.00;101017.55;1803280;79;20968;-58
2022/11/08 17:01:16;;;;;;;98.72;57.67;;;;;;;2.06;100.00;101013.56;1803165;79;20983;-59
2022/11/08 17:03:44;;;;;;;70.90;43.87;;;;;;;2.15;100.00;101021.91;1803430;79;20946;-60
2022/11/08 17:06:14;;;;;;;74.00;45.17;;;;;;;2.21;100.00;101030.95;1803577;79;20956;-59
2022/11/08 17:08:42;;;;;;;67.15;41.75;;;;;;;2.25;100.00;101022.55;1803703;79;21237;-59
2022/11/08 17:11:16;;;;;;;56.65;35.05;;;;;;;2.32;100.00;101030.18;1803144;79;20899;-69
2022/11/08 17:13:44;;;;;;;64.72;37.90;;;;;;;2.39;100.00;101027.05;1802335;79;21416;-58
2022/11/08 17:16:12;;;;;;;58.48;34.58;;;;;;;2.43;100.00;101026.37;1803474;79;20947;-62
2022/11/08 17:18:39;;;;;;;65.57;42.00;;;;;;;2.45;100.00;101033.49;1797403;79;20987;-61
2022/11/08 17:21:11;;;;;;;83.10;54.45;;;;;;;2.47;100.00;101018.78;1796099;79;21324;-66
2022/11/08 17:23:39;;;;;;;60.55;37.78;;;;;;;2.46;100.00;101022.26;1796296;79;21959;-58
2022/11/08 17:26:08;;;;;;;46.13;28.98;;;;;;;2.44;100.00;101026.71;1796247;79;20881;-58
2022/11/08 17:28:35;;;;;;;51.53;31.30;;;;;;;2.46;100.00;101028.69;1796186;79;20924;-59
2022/11/08 17:31:12;;;;;;;51.18;30.97;;;;;;;2.48;100.00;101029.41;1796262;79;20920;-61
2022/11/08 17:33:39;;;;;;;56.37;34.75;;;;;;;2.49;100.00;101034.91;1796118;79;21212;-58
2022/11/08 17:36:09;;;;;;;52.80;34.70;;;;;;;2.52;100.00;101033.87;1796307;79;21431;-59
2022/11/08 17:38:37;;;;;;;54.95;35.65;;;;;;;2.51;100.00;101034.34;1796251;79;20976;-58
2022/11/08 17:41:10;;;;;;;37.98;24.95;;;;;;;2.50;100.00;101032.71;1795686;79;20924;-67
2022/11/08 17:43:38;;;;;;;34.53;22.70;;;;;;;2.49;100.00;101033.63;1795908;79;21787;-59
2022/11/08 17:46:06;;;;;;;31.77;21.17;;;;;;;2.49;100.00;101028.47;1796303;79;21161;-58
2022/11/08 17:48:33;;;;;;;39.73;25.27;;;;;;;2.53;100.00;101032.47;1796261;79;20976;-58
2022/11/08 17:51:02;;;;;;;33.88;22.55;;;;;;;2.53;100.00;101032.47;1796340;79;21122;-62
2022/11/08 17:53:29;;;;;;;31.40;19.55;;;;;;;2.57;100.00;101026.16;1795893;79;21000;-58
2022/11/08 17:55:59;;;;;;;37.23;23.75;;;;;;;2.57;100.00;101026.16;1796408;79;20912;-57
2022/11/08 17:58:26;;;;;;;47.03;25.35;;;;;;;2.58;100.00;101030.39;1796202;79;21125;-58
2022/11/08 18:00:57;;;;;;;38.35;23.87;;;;;;;2.60;100.00;101031.55;1796124;79;21521;-60
2022/11/08 18:03:25;;;;;;;35.80;22.07;;;;;;;2.62;100.00;101032.28;1795916;79;20983;-59
2022/11/08 18:05:54;;;;;;;37.58;21.82;;;;;;;2.62;100.00;101045.15;1796338;79;21042;-58
2022/11/08 18:08:21;;;;;;;37.55;22.48;;;;;;;2.63;100.00;101050.17;1796053;79;20980;-58